Buford, Wyoming
Current Conditions -  °F | °C
As of 3:56 AM on Sunday 23 Nov 2014 (Local Time) from KFEW Reporting Station
Broken Clouds Broken Clouds  
Wind Chill: 20°   Ceiling: 9500
Heat Index: 28°   Visibility: 10mi
Dew Point: 25°   Wind: 8mph
Humidity: 88%   Direction: 10°N
Pressure: 29.64"   Gusts: NA
Location:  41.12°N, 105.31°W
Report Text: KFEW 231056Z AUTO 01007KT 10SM BKN095 BKN140 BKN160 M02/M04 A2964 RMK AO2 SLP028 T10241041 $
Loading
Personal Weather Stations






























Interactive Weather Map New forecast layout! Learn more

10-Day Weather Forecast

Advertisements
Track Severe Weather on mobile